createdAt,value
2018-01-23T00:02:18.844Z,99832.05
2018-01-23T00:04:47.268Z,99840.92
2018-01-23T00:07:15.697Z,99840.63
2018-01-23T00:09:44.089Z,99848.56
2018-01-23T00:12:12.545Z,99851.61
2018-01-23T00:14:40.996Z,99854.96
2018-01-23T00:17:09.392Z,99853.34
2018-01-23T00:19:37.816Z,99860.06
2018-01-23T00:22:06.204Z,99857.15
2018-01-23T00:24:34.669Z,99857.02
2018-01-23T00:27:03.107Z,99858.20
2018-01-23T00:29:31.532Z,99867.12
2018-01-23T00:31:59.968Z,99870.87
2018-01-23T00:34:28.392Z,99863.47
2018-01-23T00:36:56.788Z,99858.31
2018-01-23T00:39:25.236Z,99877.22
2018-01-23T00:41:53.648Z,99874.18
2018-01-23T00:44:22.092Z,99884.22
2018-01-23T00:46:50.496Z,99881.69
2018-01-23T00:49:18.967Z,99890.21
2018-01-23T00:51:47.356Z,99897.22
2018-01-23T00:54:15.876Z,99892.61
2018-01-23T00:56:44.284Z,99894.47
2018-01-23T00:59:12.730Z,99900.59
2018-01-23T01:01:41.153Z,99903.53
2018-01-23T01:04:09.540Z,99906.12
2018-01-23T01:06:38.004Z,99908.25
2018-01-23T01:09:06.433Z,99905.34
2018-01-23T01:11:34.867Z,99911.84
2018-01-23T01:14:03.296Z,99913.95
2018-01-23T01:16:31.704Z,99913.88
2018-01-23T01:19:00.131Z,99912.79
2018-01-23T01:21:28.572Z,99908.20
2018-01-23T01:23:57.091Z,99916.56
2018-01-23T01:26:25.496Z,99920.95
2018-01-23T01:28:53.985Z,99923.41
2018-01-23T01:31:22.430Z,99923.59
2018-01-23T01:33:50.888Z,99922.77
2018-01-23T01:36:19.395Z,99924.64
2018-01-23T01:38:47.836Z,99923.36
2018-01-23T01:41:16.268Z,99928.19
2018-01-23T01:43:44.721Z,99928.06
2018-01-23T01:46:13.153Z,99927.03
2018-01-23T01:48:53.500Z,99929.22
2018-01-23T01:51:21.972Z,99935.97
2018-01-23T01:53:50.373Z,99930.90
2018-01-23T01:56:18.811Z,99930.23
2018-01-23T01:58:47.265Z,99938.13
2018-01-23T02:01:15.698Z,99936.64
2018-01-23T02:03:44.153Z,99927.16
2018-01-23T02:06:12.659Z,99938.56
2018-01-23T02:08:41.093Z,99937.14
2018-01-23T02:11:09.528Z,99936.94
2018-01-23T02:13:38.019Z,99950.93
2018-01-23T02:16:06.425Z,99948.63
2018-01-23T02:18:34.941Z,99947.94
2018-01-23T02:21:03.348Z,99956.27
2018-01-23T02:23:31.760Z,99944.75
2018-01-23T02:26:00.203Z,99944.89
2018-01-23T02:28:28.660Z,99941.83
2018-01-23T02:30:57.089Z,99961.57
2018-01-23T02:33:25.541Z,99946.90
2018-01-23T02:35:54.018Z,99951.33
2018-01-23T02:38:22.525Z,99950.75
2018-01-23T02:40:51.100Z,99952.46
2018-01-23T02:43:19.504Z,99953.22
2018-01-23T02:45:47.923Z,99946.00
2018-01-23T02:48:16.365Z,99941.79
2018-01-23T02:50:44.800Z,99951.39
2018-01-23T02:53:13.254Z,99948.89
2018-01-23T02:55:41.664Z,99958.25
2018-01-23T02:58:10.153Z,99959.47
2018-01-23T03:00:38.596Z,99955.33
2018-01-23T03:03:07.129Z,99950.20
2018-01-23T03:05:35.617Z,99964.72
2018-01-23T03:08:04.157Z,99962.72
2018-01-23T03:10:32.653Z,99965.55
2018-01-23T03:13:01.050Z,99959.53
2018-01-23T03:15:29.537Z,99969.47
2018-01-23T03:17:57.955Z,99975.46
2018-01-23T03:20:26.457Z,99980.42
2018-01-23T03:22:54.909Z,99977.30
2018-01-23T03:25:23.304Z,99976.61
2018-01-23T03:27:51.812Z,99985.44
2018-01-23T03:30:20.213Z,99983.79
2018-01-23T03:32:48.657Z,99981.69
2018-01-23T03:35:17.065Z,99987.38
2018-01-23T03:37:45.500Z,99992.77
2018-01-23T03:40:13.925Z,99986.12
2018-01-23T03:42:42.361Z,99994.84
2018-01-23T03:45:10.845Z,99994.94
2018-01-23T03:47:39.343Z,99990.77
2018-01-23T03:50:07.781Z,99995.67
2018-01-23T03:52:36.212Z,99992.47
2018-01-23T03:55:04.681Z,100003.67
2018-01-23T03:57:33.133Z,100005.48
2018-01-23T04:00:01.645Z,100008.54
2018-01-23T04:02:30.200Z,100012.64
2018-01-23T04:04:58.622Z,100018.52
2018-01-23T04:07:27.023Z,100018.61
2018-01-23T04:09:55.481Z,100029.77
2018-01-23T04:12:23.885Z,100030.67
2018-01-23T04:14:52.341Z,100023.69
2018-01-23T04:17:20.843Z,100027.51
2018-01-23T04:19:49.246Z,100034.13
2018-01-23T04:22:17.718Z,100036.02
2018-01-23T04:24:46.195Z,100032.45
2018-01-23T04:27:14.636Z,100039.80
2018-01-23T04:29:43.145Z,100048.59
2018-01-23T04:32:11.602Z,100053.75
2018-01-23T04:34:40.013Z,100048.42
2018-01-23T04:37:08.475Z,100059.21
2018-01-23T04:39:36.881Z,100062.81
2018-01-23T04:42:05.316Z,100064.98
2018-01-23T04:44:33.728Z,100062.44
2018-01-23T04:47:02.173Z,100066.42
2018-01-23T04:49:30.704Z,100071.27
2018-01-23T04:51:59.112Z,100069.23
2018-01-23T04:54:27.516Z,100070.51
2018-01-23T04:56:56.033Z,100077.55
2018-01-23T04:59:24.432Z,100076.83
2018-01-23T05:01:52.881Z,100059.10
2018-01-23T05:04:21.290Z,100079.40
2018-01-23T05:06:49.702Z,100075.20
2018-01-23T05:09:18.165Z,100079.67
2018-01-23T05:11:46.564Z,100078.97
2018-01-23T05:14:14.969Z,100079.44
2018-01-23T05:16:43.428Z,100079.50
2018-01-23T05:19:11.952Z,100063.44
2018-01-23T05:21:40.389Z,100074.11
2018-01-23T05:24:08.869Z,100075.59
2018-01-23T05:26:37.307Z,100087.38
2018-01-23T05:29:05.713Z,100093.27
2018-01-23T05:31:34.205Z,100103.68
2018-01-23T05:34:02.706Z,100108.91
2018-01-23T05:36:31.216Z,100110.19
2018-01-23T05:38:59.721Z,100098.70
2018-01-23T05:41:28.178Z,100123.82
2018-01-23T05:43:56.670Z,100110.76
2018-01-23T05:46:25.126Z,100102.06
2018-01-23T05:48:53.629Z,100113.20
2018-01-23T05:51:22.129Z,100113.28
2018-01-23T05:53:50.549Z,100111.08
2018-01-23T05:56:18.992Z,100125.52
2018-01-23T05:58:47.404Z,100114.49
2018-01-23T06:01:15.893Z,100124.80
2018-01-23T06:03:44.297Z,100122.47
2018-01-23T06:06:12.736Z,100127.31
2018-01-23T06:08:41.259Z,100115.17
2018-01-23T06:11:09.765Z,100131.70
2018-01-23T06:13:38.365Z,100131.08
2018-01-23T06:16:06.842Z,100148.34
2018-01-23T06:18:35.279Z,100139.72
2018-01-23T06:21:03.711Z,100151.53
2018-01-23T06:23:32.148Z,100157.14
2018-01-23T06:26:00.579Z,100151.85
2018-01-23T06:28:29.091Z,100162.33
2018-01-23T06:30:57.996Z,100160.85
2018-01-23T06:33:28.132Z,100155.22
2018-01-23T06:35:56.556Z,100165.91
2018-01-23T06:38:26.231Z,100167.83
2018-01-23T06:40:55.024Z,100170.14
2018-01-23T06:43:23.421Z,100165.33
2018-01-23T06:45:51.824Z,100168.73
2018-01-23T06:48:20.293Z,100187.25
2018-01-23T06:50:48.706Z,100177.31
2018-01-23T06:53:17.146Z,100184.16
2018-01-23T06:55:45.593Z,100190.80
2018-01-23T06:58:14.128Z,100198.71
2018-01-23T07:00:42.578Z,100194.48
2018-01-23T07:03:11.007Z,100210.87
2018-01-23T07:05:39.532Z,100207.69
2018-01-23T07:08:07.998Z,100212.46
2018-01-23T07:10:36.450Z,100219.58
2018-01-23T07:13:04.864Z,100221.33
2018-01-23T07:15:33.332Z,100239.23
2018-01-23T07:18:01.741Z,100233.48
2018-01-23T07:20:30.176Z,100231.45
2018-01-23T07:22:58.616Z,100233.62
2018-01-23T07:25:27.060Z,100237.75
2018-01-23T07:27:55.558Z,100251.30
2018-01-23T07:30:24.004Z,100251.55
2018-01-23T07:32:52.452Z,100253.00
2018-01-23T07:35:20.933Z,100258.81
2018-01-23T07:37:49.505Z,100260.67
2018-01-23T07:40:18.023Z,100246.48
2018-01-23T07:42:47.214Z,100268.59
2018-01-23T07:45:15.676Z,100265.62
2018-01-23T07:47:44.132Z,100217.53
2018-01-23T07:50:12.643Z,100276.98
2018-01-23T07:52:41.058Z,100270.27
2018-01-23T07:55:09.571Z,100284.41
2018-01-23T07:57:37.977Z,100276.43
2018-01-23T08:00:06.440Z,100277.94
2018-01-23T08:02:34.967Z,100276.19
2018-01-23T08:05:03.501Z,100276.06
2018-01-23T08:07:32.016Z,100255.55
2018-01-23T08:10:00.441Z,100284.70
2018-01-23T08:12:28.922Z,100288.76
2018-01-23T08:14:57.335Z,100291.44
2018-01-23T08:17:25.788Z,100286.86
2018-01-23T08:19:54.261Z,100305.19
2018-01-23T08:22:22.781Z,100307.59
2018-01-23T08:24:51.257Z,100314.13
2018-01-23T08:27:19.724Z,100322.16
2018-01-23T08:29:48.326Z,100323.33
2018-01-23T08:32:16.822Z,100331.58
2018-01-23T08:34:45.335Z,100328.80
2018-01-23T08:37:13.736Z,100333.23
2018-01-23T08:39:42.161Z,100342.56
2018-01-23T08:42:10.673Z,100344.93
2018-01-23T08:44:39.964Z,100346.03
2018-01-23T08:47:08.418Z,100331.17
2018-01-23T08:49:36.862Z,100330.00
2018-01-23T08:52:05.323Z,100345.72
2018-01-23T08:54:33.791Z,100344.97
2018-01-23T08:57:02.314Z,100347.93
2018-01-23T08:59:30.854Z,100342.88
2018-01-23T09:01:59.261Z,100333.05
2018-01-23T09:04:27.741Z,100346.40
2018-01-23T09:07:00.349Z,100342.14
2018-01-23T09:09:28.816Z,100351.17
2018-01-23T09:11:57.253Z,100342.65
2018-01-23T09:14:25.665Z,100336.84
2018-01-23T09:16:54.114Z,100338.56
2018-01-23T09:19:22.525Z,100340.50
2018-01-23T09:21:50.983Z,100339.19
2018-01-23T09:24:19.459Z,100338.13
2018-01-23T09:26:47.933Z,100333.25
2018-01-23T09:29:16.313Z,100327.42
2018-01-23T09:31:44.727Z,100313.10
2018-01-23T09:34:13.174Z,100321.79
2018-01-23T09:36:41.616Z,100324.23
2018-01-23T09:39:10.200Z,100327.91
2018-01-23T09:41:38.674Z,100323.23
2018-01-23T09:44:07.127Z,100329.15
2018-01-23T09:46:35.546Z,100327.45
2018-01-23T09:49:04.007Z,100330.37
2018-01-23T09:51:32.481Z,100310.97
2018-01-23T09:54:00.936Z,100322.52
2018-01-23T09:56:29.392Z,100320.77
2018-01-23T09:58:57.811Z,100315.67
2018-01-23T10:01:26.314Z,100313.58
2018-01-23T10:03:54.789Z,100304.70
2018-01-23T10:06:23.243Z,100309.29
2018-01-23T10:08:52.235Z,100303.38
2018-01-23T10:11:20.705Z,100314.17
2018-01-23T10:13:49.173Z,100313.14
2018-01-23T10:16:17.809Z,100303.03
2018-01-23T10:18:46.324Z,100319.16
2018-01-23T10:21:14.937Z,100288.37
2018-01-23T10:23:43.479Z,100326.76
2018-01-23T10:26:11.947Z,100313.89
2018-01-23T10:28:40.517Z,100324.30
2018-01-23T10:31:08.965Z,100305.51
2018-01-23T10:33:37.454Z,100311.29
2018-01-23T10:36:05.880Z,100309.57
2018-01-23T10:38:34.320Z,100313.38
2018-01-23T10:41:02.730Z,100311.31
2018-01-23T10:43:31.182Z,100318.06
2018-01-23T10:45:59.671Z,100317.45
2018-01-23T10:48:28.147Z,100313.20
2018-01-23T10:50:56.559Z,100314.03
2018-01-23T10:53:24.970Z,100307.48
2018-01-23T10:55:53.458Z,100317.33
2018-01-23T10:58:21.969Z,100317.42
2018-01-23T11:00:56.069Z,100303.93
2018-01-23T11:03:24.593Z,100311.22
2018-01-23T11:05:53.008Z,100316.07
2018-01-23T11:08:21.532Z,100309.55
2018-01-23T11:10:49.941Z,100316.69
2018-01-23T11:13:18.398Z,100314.54
2018-01-23T11:15:46.911Z,100316.41
2018-01-23T11:18:15.331Z,100325.44
2018-01-23T11:20:43.878Z,100320.30
2018-01-23T11:23:12.871Z,100214.94
2018-01-23T11:25:41.444Z,100315.48
2018-01-23T11:28:09.857Z,100307.03
2018-01-23T11:30:38.283Z,100312.45
2018-01-23T11:33:06.800Z,100310.61
2018-01-23T11:35:35.263Z,100304.97
2018-01-23T11:38:03.742Z,100321.90
2018-01-23T11:40:32.165Z,100300.41
2018-01-23T11:43:00.613Z,100326.28
2018-01-23T11:45:29.069Z,100319.93
2018-01-23T11:47:57.564Z,100320.66
2018-01-23T11:50:26.086Z,100310.27
2018-01-23T11:52:54.644Z,100310.16
2018-01-23T11:55:23.156Z,100304.97
2018-01-23T11:57:51.625Z,100307.28
2018-01-23T12:00:20.146Z,100312.25
2018-01-23T12:02:48.607Z,100302.81
2018-01-23T12:05:17.245Z,100307.87
2018-01-23T12:07:45.970Z,100298.53
2018-01-23T12:10:14.507Z,100310.95
2018-01-23T12:12:43.051Z,100309.65
2018-01-23T12:15:11.532Z,100313.19
2018-01-23T12:17:40.075Z,100307.47
2018-01-23T12:20:08.606Z,100312.26
2018-01-23T12:22:37.259Z,100314.63
2018-01-23T12:25:05.705Z,100319.58
2018-01-23T12:27:34.172Z,100317.53
2018-01-23T12:30:02.602Z,100310.14
2018-01-23T12:32:31.019Z,100321.14
2018-01-23T12:34:59.473Z,100325.36
2018-01-23T12:37:27.941Z,100323.88
2018-01-23T12:39:56.449Z,100311.63
2018-01-23T12:42:24.856Z,100324.11
2018-01-23T12:44:53.312Z,100328.14
2018-01-23T12:47:21.913Z,100325.56
2018-01-23T12:49:50.369Z,100335.01
2018-01-23T12:52:18.880Z,100337.19
2018-01-23T12:54:47.293Z,100322.21
2018-01-23T12:57:15.807Z,100327.94
2018-01-23T12:59:44.268Z,100340.83
2018-01-23T13:02:12.694Z,100349.55
2018-01-23T13:04:41.199Z,100336.77
2018-01-23T13:07:09.629Z,100351.92
2018-01-23T13:09:38.069Z,100352.98
2018-01-23T13:12:06.483Z,100357.55
2018-01-23T13:14:34.901Z,100369.80
2018-01-23T13:17:03.320Z,100368.45
2018-01-23T13:19:31.762Z,100364.82
2018-01-23T13:22:00.235Z,100337.49
2018-01-23T13:24:28.811Z,100374.08
2018-01-23T13:26:57.252Z,100382.91
2018-01-23T13:29:25.685Z,100363.27
2018-01-23T13:31:54.125Z,100385.02
2018-01-23T13:34:22.629Z,100368.98
2018-01-23T13:36:51.099Z,100390.31
2018-01-23T13:39:19.508Z,100399.03
2018-01-23T13:41:48.020Z,100407.03
2018-01-23T13:44:16.521Z,100404.95
2018-01-23T13:46:44.993Z,100412.53
2018-01-23T13:49:13.463Z,100399.23
2018-01-23T13:51:41.943Z,100413.70
2018-01-23T13:54:10.455Z,100407.09
2018-01-23T13:56:38.952Z,100412.62
2018-01-23T13:59:07.425Z,100393.56
2018-01-23T14:01:35.898Z,100403.84
2018-01-23T14:04:04.520Z,100410.22
2018-01-23T14:06:33.006Z,100413.77
2018-01-23T14:09:01.510Z,100421.15
2018-01-23T14:11:30.096Z,100418.73
2018-01-23T14:13:58.557Z,100422.89
2018-01-23T14:16:27.035Z,100423.73
2018-01-23T14:18:55.587Z,100426.53
2018-01-23T14:21:23.992Z,100422.36
2018-01-23T14:23:52.488Z,100438.98
2018-01-23T14:26:21.006Z,100439.62
2018-01-23T14:28:49.442Z,100439.38
2018-01-23T14:31:17.987Z,100455.14
2018-01-23T14:33:46.456Z,100454.33
2018-01-23T14:36:15.027Z,100456.17
2018-01-23T14:38:43.520Z,100458.88
2018-01-23T14:41:11.924Z,100459.81
2018-01-23T14:43:40.499Z,100462.30
2018-01-23T14:46:08.959Z,100466.97
2018-01-23T14:48:37.443Z,100459.98
2018-01-23T14:51:05.937Z,100477.97
2018-01-23T14:53:34.380Z,100476.19
2018-01-23T14:56:02.859Z,100466.47
2018-01-23T14:58:31.389Z,100476.25
2018-01-23T15:00:59.878Z,100494.84
2018-01-23T15:03:28.341Z,100484.02
2018-01-23T15:05:56.759Z,100507.67
2018-01-23T15:08:25.246Z,100510.07
2018-01-23T15:10:53.790Z,100520.64
2018-01-23T15:13:22.345Z,100524.36
2018-01-23T15:15:50.752Z,100519.23
2018-01-23T15:18:19.241Z,100530.59
2018-01-23T15:20:47.753Z,100532.77
2018-01-23T15:23:16.232Z,100532.92
2018-01-23T15:25:44.641Z,100538.43
2018-01-23T15:28:13.152Z,100535.06
2018-01-23T15:30:41.594Z,100542.44
2018-01-23T15:33:10.069Z,100549.03
2018-01-23T15:35:38.580Z,100556.83
2018-01-23T15:38:07.033Z,100557.49
2018-01-23T15:40:35.524Z,100561.47
2018-01-23T15:43:03.962Z,100572.89
2018-01-23T15:45:32.437Z,100563.25
2018-01-23T15:48:00.905Z,100571.56
2018-01-23T15:50:29.362Z,100577.91
2018-01-23T15:52:57.828Z,100588.09
2018-01-23T15:55:26.301Z,100582.13
2018-01-23T15:57:54.753Z,100590.52
2018-01-23T16:00:23.188Z,100589.53
2018-01-23T16:02:51.600Z,100597.09
2018-01-23T16:05:20.726Z,100599.78
2018-01-23T16:07:49.190Z,100612.23
2018-01-23T16:10:17.687Z,100623.06
2018-01-23T16:12:46.103Z,100628.52
2018-01-23T16:15:14.560Z,100636.23
2018-01-23T16:17:43.010Z,100635.95
2018-01-23T16:20:11.506Z,100645.31
2018-01-23T16:22:39.893Z,100650.76
2018-01-23T16:25:08.362Z,100649.33
2018-01-23T16:27:36.768Z,100661.44
2018-01-23T16:30:05.211Z,100664.54
2018-01-23T16:32:33.661Z,100664.67
2018-01-23T16:35:02.131Z,100670.89
2018-01-23T16:37:30.585Z,100675.26
2018-01-23T16:39:59.087Z,100680.98
2018-01-23T16:42:27.553Z,100691.29
2018-01-23T16:44:56.063Z,100693.51
2018-01-23T16:47:24.577Z,100694.35
2018-01-23T16:49:53.041Z,100704.09
2018-01-23T16:52:21.473Z,100704.03
2018-01-23T16:54:49.936Z,100713.49
2018-01-23T16:57:18.348Z,100689.34
2018-01-23T16:59:46.859Z,100708.34
2018-01-23T17:02:15.337Z,100713.30
2018-01-23T17:04:43.777Z,100716.53
2018-01-23T17:07:12.277Z,100733.75
2018-01-23T17:09:40.695Z,100736.40
2018-01-23T17:12:09.151Z,100740.68
2018-01-23T17:14:37.552Z,100745.03
2018-01-23T17:17:05.992Z,100748.02
2018-01-23T17:19:34.439Z,100751.41
2018-01-23T17:22:02.928Z,100751.63
2018-01-23T17:24:31.389Z,100759.14
2018-01-23T17:26:59.911Z,100756.72
2018-01-23T17:29:28.335Z,100759.84
2018-01-23T17:31:56.757Z,100773.22
2018-01-23T17:34:25.214Z,100770.61
2018-01-23T17:36:53.633Z,100765.71
2018-01-23T17:39:22.131Z,100774.95
2018-01-23T17:41:50.546Z,100780.17
2018-01-23T17:44:19.049Z,100778.28
2018-01-23T17:46:47.504Z,100778.03
2018-01-23T17:49:15.936Z,100771.20
2018-01-23T17:51:44.388Z,100787.03
2018-01-23T17:54:12.818Z,100789.63
2018-01-23T17:56:41.318Z,100788.73
2018-01-23T17:59:09.812Z,100787.61
2018-01-23T18:01:38.311Z,100798.38
2018-01-23T18:04:06.838Z,100794.62
2018-01-23T18:06:35.264Z,100804.30
2018-01-23T18:09:03.729Z,100806.52
2018-01-23T18:11:32.395Z,100803.23
2018-01-23T18:16:34.260Z,100807.83
2018-01-23T18:19:02.692Z,100811.30
2018-01-23T18:21:31.185Z,100819.86
2018-01-23T18:24:00.818Z,100822.55
2018-01-23T18:26:29.326Z,100805.89
2018-01-23T18:28:57.821Z,100827.80
2018-01-23T18:31:26.332Z,100821.57
2018-01-23T18:33:55.009Z,100821.03
2018-01-23T18:36:23.545Z,100827.39
2018-01-23T18:38:52.102Z,100831.84
2018-01-23T18:41:22.195Z,100830.99
2018-01-23T18:43:50.612Z,100840.84
2018-01-23T18:46:19.675Z,100838.09
2018-01-23T18:48:48.137Z,100826.86
2018-01-23T18:51:17.653Z,100832.80
2018-01-23T18:53:46.057Z,100836.77
2018-01-23T18:56:14.599Z,100845.34
2018-01-23T18:58:43.118Z,100849.22
2018-01-23T19:01:12.149Z,100854.46
2018-01-23T19:03:40.600Z,100855.52
2018-01-23T19:06:09.055Z,100862.09
2018-01-23T19:08:37.452Z,100866.23
2018-01-23T19:11:05.893Z,100862.12
2018-01-23T19:13:34.334Z,100876.62
2018-01-23T19:16:02.725Z,100875.45
2018-01-23T19:18:31.175Z,100881.33
2018-01-23T19:20:59.572Z,100878.08
2018-01-23T19:23:28.053Z,100886.95
2018-01-23T19:25:56.449Z,100886.28
2018-01-23T19:28:25.522Z,100882.50
2018-01-23T19:30:53.948Z,100885.70
2018-01-23T19:33:22.372Z,100887.73
2018-01-23T19:35:50.820Z,100889.08
2018-01-23T19:38:19.261Z,100886.55
2018-01-23T19:40:47.731Z,100890.89
2018-01-23T19:43:16.194Z,100883.06
2018-01-23T19:45:44.603Z,100889.31
2018-01-23T19:48:13.057Z,100888.63
2018-01-23T19:50:41.474Z,100889.14
2018-01-23T19:53:09.887Z,100895.03
2018-01-23T19:55:38.329Z,100896.53
2018-01-23T19:58:06.830Z,100895.80
2018-01-23T20:00:35.274Z,100898.04
2018-01-23T20:03:03.668Z,100892.62
2018-01-23T20:05:32.241Z,100907.23
2018-01-23T20:08:00.676Z,100905.05
2018-01-23T20:10:29.076Z,100913.47
2018-01-23T20:12:57.502Z,100909.03
2018-01-23T20:15:25.904Z,100916.73
2018-01-23T20:17:54.363Z,100917.76
2018-01-23T20:20:22.819Z,100923.81
2018-01-23T20:22:51.247Z,100928.92
2018-01-23T20:25:19.670Z,100921.43
2018-01-23T20:27:48.157Z,100935.73
2018-01-23T20:30:16.561Z,100928.10
2018-01-23T20:32:45.057Z,100921.23
2018-01-23T20:35:13.445Z,100930.70
2018-01-23T20:37:41.837Z,100932.81
2018-01-23T20:40:10.256Z,100940.52
2018-01-23T20:42:38.669Z,100943.55
2018-01-23T20:45:07.161Z,100949.25
2018-01-23T20:47:35.601Z,100950.69
2018-01-23T20:50:04.030Z,100949.34
2018-01-23T20:52:32.472Z,100956.73
2018-01-23T20:55:00.898Z,100953.22
2018-01-23T20:57:29.345Z,100955.64
2018-01-23T20:59:57.757Z,100961.28
2018-01-23T21:02:26.157Z,100959.27
2018-01-23T21:04:54.563Z,100965.73
2018-01-23T21:07:23.021Z,100966.81
2018-01-23T21:09:51.453Z,100971.61
2018-01-23T21:12:19.929Z,100972.34
2018-01-23T21:14:48.360Z,100968.25
2018-01-23T21:17:16.788Z,100970.95
2018-01-23T21:19:45.176Z,100971.01
2018-01-23T21:22:13.635Z,100972.35
2018-01-23T21:24:42.096Z,100976.31
2018-01-23T21:27:10.504Z,100986.20
2018-01-23T21:29:38.896Z,100993.78
2018-01-23T21:32:07.349Z,100989.91
2018-01-23T21:34:35.775Z,100966.56
2018-01-23T21:37:04.184Z,101006.55
2018-01-23T21:39:32.677Z,101008.47
2018-01-23T21:42:01.103Z,101016.01
2018-01-23T21:44:29.565Z,101005.70
2018-01-23T21:46:57.998Z,101018.69
2018-01-23T21:49:26.457Z,101022.05
2018-01-23T21:51:54.919Z,101022.08
2018-01-23T21:54:23.321Z,101028.34
2018-01-23T21:56:51.830Z,101037.84
2018-01-23T21:59:20.229Z,101046.05
2018-01-23T22:01:48.689Z,101040.77
2018-01-23T22:04:17.112Z,101047.98
2018-01-23T22:06:45.569Z,101053.34
2018-01-23T22:09:14.033Z,101056.03
2018-01-23T22:11:42.497Z,101050.73
2018-01-23T22:14:10.932Z,101058.11
2018-01-23T22:16:39.341Z,101061.71
2018-01-23T22:19:07.794Z,101047.32
2018-01-23T22:21:36.262Z,101071.33
2018-01-23T22:24:04.721Z,101068.80
2018-01-23T22:26:33.105Z,101078.70
2018-01-23T22:29:01.501Z,101075.10
2018-01-23T22:31:29.938Z,101086.36
2018-01-23T22:33:58.352Z,101077.20
2018-01-23T22:36:26.784Z,101074.76
2018-01-23T22:38:55.247Z,101078.01
2018-01-23T22:41:23.731Z,101080.37
2018-01-23T22:43:52.233Z,101076.88
2018-01-23T22:46:20.665Z,101075.64
2018-01-23T22:48:49.088Z,101077.73
2018-01-23T22:51:17.524Z,101076.81
2018-01-23T22:53:45.916Z,101080.44
2018-01-23T22:56:14.390Z,101085.63
2018-01-23T22:58:42.818Z,101090.18
2018-01-23T23:01:11.269Z,101091.28
2018-01-23T23:03:39.770Z,101093.45
2018-01-23T23:06:08.239Z,101100.20
2018-01-23T23:08:36.649Z,101102.91
2018-01-23T23:11:05.085Z,101100.91
2018-01-23T23:13:33.531Z,101097.39
2018-01-23T23:16:01.994Z,101099.92
2018-01-23T23:18:30.458Z,101097.86
2018-01-23T23:20:58.860Z,101100.23
2018-01-23T23:23:27.284Z,101095.39
2018-01-23T23:25:55.676Z,101092.77
2018-01-23T23:28:24.169Z,101089.72
2018-01-23T23:30:52.582Z,101082.05
2018-01-23T23:33:21.121Z,101097.86
2018-01-23T23:35:49.553Z,101100.42
2018-01-23T23:38:18.003Z,101106.72
2018-01-23T23:40:46.417Z,101092.18
2018-01-23T23:43:14.816Z,101113.33
2018-01-23T23:45:43.271Z,101121.63
2018-01-23T23:48:11.748Z,101119.98
2018-01-23T23:50:40.157Z,101106.53
2018-01-23T23:53:08.622Z,101121.69
2018-01-23T23:55:37.129Z,101122.67
2018-01-23T23:58:05.529Z,101125.36
